Time,TemperatureF,DewpointF,PressureIn,WindDirection,WindDirectionDegrees,WindSpeedMPH,WindSpeedGustMPH,Humidity,HourlyPrecipIn,Conditions,Clouds,dailyrainin,SoftwareType,DateUTC
2013-04-10 00:00:00,62.2,50.0,30.09,South,184,7.0,12.0,65,0.00,,,0.00,weatherlink.com 1.10,2013-04-10 04:00:00,
2013-04-10 00:15:00,62.0,50.0,30.09,NE,35,1.0,15.0,65,0.00,,,0.00,weatherlink.com 1.10,2013-04-10 04:15:00,
2013-04-10 00:30:00,61.9,50.0,30.09,North,4,6.0,12.0,66,0.00,,,0.00,weatherlink.com 1.10,2013-04-10 04:30:00,
2013-04-10 00:45:00,61.8,50.0,30.09,NNW,341,1.0,9.0,66,0.00,,,0.00,weatherlink.com 1.10,2013-04-10 04:45:00,
2013-04-10 01:00:00,61.8,50.0,30.09,North,355,3.0,7.0,66,0.00,,,0.00,weatherlink.com 1.10,2013-04-10 05:00:00,
2013-04-10 01:16:00,61.8,51.0,30.09,NW,311,3.0,14.0,67,0.00,,,0.00,weatherlink.com 1.10,2013-04-10 05:16:00,
2013-04-10 01:31:00,61.8,51.0,30.09,SW,217,0.0,9.0,67,0.00,,,0.00,weatherlink.com 1.10,2013-04-10 05:31:00,
2013-04-10 01:46:00,61.6,51.0,30.08,North,2,3.0,10.0,68,0.00,,,0.00,weatherlink.com 1.10,2013-04-10 05:46:00,
2013-04-10 02:01:00,61.6,51.0,30.08,SSE,164,1.0,9.0,68,0.00,,,0.00,weatherlink.com 1.10,2013-04-10 06:01:00,
2013-04-10 02:16:00,61.4,51.0,30.08,SE,146,2.0,8.0,69,0.00,,,0.00,weatherlink.com 1.10,2013-04-10 06:16:00,
2013-04-10 02:31:00,61.1,51.0,30.07,WNW,302,2.0,9.0,69,0.00,,,0.00,weatherlink.com 1.10,2013-04-10 06:31:00,
2013-04-10 03:01:00,61.1,51.0,30.07,WNW,295,2.0,10.0,69,0.00,,,0.00,weatherlink.com 1.10,2013-04-10 07:01:00,
2013-04-10 03:16:00,61.3,51.0,30.06,WNW,283,4.0,9.0,69,0.00,,,0.00,weatherlink.com 1.10,2013-04-10 07:16:00,
2013-04-10 04:16:00,60.8,51.0,30.05,SSE,165,5.0,11.0,71,0.00,,,0.00,weatherlink.com 1.10,2013-04-10 08:16:00,
2013-04-10 04:31:00,61.0,51.0,30.05,SSE,153,1.0,10.0,70,0.00,,,0.00,weatherlink.com 1.10,2013-04-10 08:31:00,
2013-04-10 05:01:00,60.5,51.0,30.05,East,88,2.0,6.0,71,0.00,,,0.00,weatherlink.com 1.10,2013-04-10 09:01:00,
2013-04-10 05:16:00,59.8,51.0,30.05,ENE,58,2.0,6.0,72,0.00,,,0.00,weatherlink.com 1.10,2013-04-10 09:16:00,
2013-04-10 05:31:00,60.1,51.0,30.05,NE,56,3.0,6.0,72,0.00,,,0.00,weatherlink.com 1.10,2013-04-10 09:31:00,
2013-04-10 05:46:00,60.2,51.0,30.05,NE,41,4.0,5.0,72,0.00,,,0.00,weatherlink.com 1.10,2013-04-10 09:46:00,
2013-04-10 06:01:00,59.5,51.0,30.05,NNE,31,4.0,4.0,73,0.00,,,0.00,weatherlink.com 1.10,2013-04-10 10:01:00,
2013-04-10 06:16:00,59.4,51.0,30.05,SW,216,2.0,6.0,74,0.00,,,0.00,weatherlink.com 1.10,2013-04-10 10:16:00,
2013-04-10 06:31:00,59.6,51.0,30.05,South,180,0.0,6.0,73,0.00,,,0.00,weatherlink.com 1.10,2013-04-10 10:31:00,
2013-04-10 06:46:00,59.4,51.0,30.05,NE,37,0.0,5.0,74,0.00,,,0.00,weatherlink.com 1.10,2013-04-10 10:46:00,
2013-04-10 07:01:00,59.1,51.0,30.05,NE,48,2.0,3.0,74,0.00,,,0.00,weatherlink.com 1.10,2013-04-10 11:01:00,
2013-04-10 07:16:00,59.0,51.0,30.06,South,189,0.0,6.0,75,0.00,,,0.00,weatherlink.com 1.10,2013-04-10 11:16:00,
2013-04-10 07:31:00,59.2,51.0,30.06,NNE,26,3.0,6.0,74,0.00,,,0.00,weatherlink.com 1.10,2013-04-10 11:31:00,
2013-04-10 07:46:00,59.0,51.0,30.06,NNE,28,4.0,5.0,74,0.00,,,0.00,weatherlink.com 1.10,2013-04-10 11:46:00,
2013-04-10 08:16:00,59.0,51.0,30.06,NNE,16,4.0,6.0,74,0.00,,,0.00,weatherlink.com 1.10,2013-04-10 12:16:00,
2013-04-10 08:31:00,59.9,51.0,30.06,NNE,22,3.0,4.0,72,0.00,,,0.00,weatherlink.com 1.10,2013-04-10 12:31:00,
2013-04-10 08:46:00,60.7,51.0,30.06,ENE,60,1.0,9.0,71,0.00,,,0.00,weatherlink.com 1.10,2013-04-10 12:46:00,
2013-04-10 09:01:00,61.8,50.0,30.07,ENE,63,2.0,4.0,66,0.00,,,0.00,weatherlink.com 1.10,2013-04-10 13:01:00,
2013-04-10 09:16:00,62.3,52.0,30.08,NNE,22,0.0,3.0,68,0.00,,,0.00,weatherlink.com 1.10,2013-04-10 13:16:00,
2013-04-10 09:31:00,62.8,52.0,30.08,SSE,165,0.0,1.0,68,0.00,,,0.00,weatherlink.com 1.10,2013-04-10 13:31:00,
2013-04-10 09:46:00,64.6,52.0,30.08,SSE,167,0.0,3.0,63,0.00,,,0.00,weatherlink.com 1.10,2013-04-10 13:46:00,
2013-04-10 10:01:00,65.5,51.0,30.08,South,183,1.0,3.0,60,0.00,,,0.00,weatherlink.com 1.10,2013-04-10 14:01:00,
2013-04-10 10:16:00,67.0,51.0,30.08,SE,146,0.0,2.0,57,0.00,,,0.00,weatherlink.com 1.10,2013-04-10 14:16:00,
2013-04-10 10:32:00,67.6,52.0,30.08,East,100,2.0,6.0,58,0.00,,,0.00,weatherlink.com 1.10,2013-04-10 14:32:00,
2013-04-10 10:47:00,67.8,51.0,30.08,SSE,149,1.0,3.0,55,0.00,,,0.00,weatherlink.com 1.10,2013-04-10 14:47:00,
2013-04-10 11:02:00,68.4,52.0,30.08,South,187,0.0,6.0,56,0.00,,,0.00,weatherlink.com 1.10,2013-04-10 15:02:00,
2013-04-10 11:17:00,69.3,51.0,30.09,ESE,121,0.0,4.0,53,0.00,,,0.00,weatherlink.com 1.10,2013-04-10 15:17:00,
2013-04-10 11:32:00,70.3,51.0,30.09,SSW,209,3.0,5.0,51,0.00,,,0.00,weatherlink.com 1.10,2013-04-10 15:32:00,
2013-04-10 11:47:00,70.7,51.0,30.09,SSW,203,0.0,7.0,50,0.00,,,0.00,weatherlink.com 1.10,2013-04-10 15:47:00,
2013-04-10 12:02:00,71.0,51.0,30.08,SSW,198,6.0,7.0,50,0.00,,,0.00,weatherlink.com 1.10,2013-04-10 16:02:00,
2013-04-10 12:17:00,71.6,51.0,30.08,SSW,198,4.0,8.0,49,0.00,,,0.00,weatherlink.com 1.10,2013-04-10 16:17:00,
2013-04-10 12:32:00,73.2,51.0,30.08,NE,41,4.0,6.0,46,0.00,,,0.00,weatherlink.com 1.10,2013-04-10 16:32:00,
2013-04-10 12:47:00,73.2,49.0,30.07,SW,216,5.0,10.0,43,0.00,,,0.00,weatherlink.com 1.10,2013-04-10 16:47:00,
2013-04-10 13:02:00,73.9,49.0,30.06,WSW,255,5.0,9.0,42,0.00,,,0.00,weatherlink.com 1.10,2013-04-10 17:02:00,
2013-04-10 13:17:00,74.5,49.0,30.06,SSW,207,4.0,9.0,41,0.00,,,0.00,weatherlink.com 1.10,2013-04-10 17:17:00,
2013-04-10 13:32:00,75.8,45.0,30.05,SW,219,2.0,8.0,34,0.00,,,0.00,weatherlink.com 1.10,2013-04-10 17:32:00,
2013-04-10 13:47:00,75.6,47.0,30.05,WNW,292,6.0,8.0,36,0.00,,,0.00,weatherlink.com 1.10,2013-04-10 17:47:00,
2013-04-10 14:02:00,76.0,46.0,30.04,SE,141,1.0,11.0,35,0.00,,,0.00,weatherlink.com 1.10,2013-04-10 18:02:00,
2013-04-10 14:17:00,78.0,43.0,30.04,WSW,240,6.0,8.0,29,0.00,,,0.00,weatherlink.com 1.10,2013-04-10 18:17:00,
2013-04-10 14:32:00,77.1,41.0,30.04,West,260,2.0,8.0,27,0.00,,,0.00,weatherlink.com 1.10,2013-04-10 18:32:00,
2013-04-10 14:47:00,77.8,44.0,30.03,South,191,4.0,7.0,30,0.00,,,0.00,weatherlink.com 1.10,2013-04-10 18:47:00,
2013-04-10 15:02:00,78.4,44.0,30.03,SW,236,3.0,6.0,30,0.00,,,0.00,weatherlink.com 1.10,2013-04-10 19:02:00,
2013-04-10 15:17:00,77.6,45.0,30.03,SW,214,4.0,7.0,31,0.00,,,0.00,weatherlink.com 1.10,2013-04-10 19:17:00,
2013-04-10 15:32:00,77.5,45.0,30.02,SW,227,3.0,7.0,32,0.00,,,0.00,weatherlink.com 1.10,2013-04-10 19:32:00,
2013-04-10 15:48:00,78.2,42.0,30.01,SSW,198,7.0,10.0,28,0.00,,,0.00,weatherlink.com 1.10,2013-04-10 19:48:00,
2013-04-10 16:03:00,78.7,40.0,30.00,ESE,103,1.0,7.0,25,0.00,,,0.00,weatherlink.com 1.10,2013-04-10 20:03:00,
2013-04-10 16:18:00,78.4,43.0,30.00,SSW,193,4.0,9.0,28,0.00,,,0.00,weatherlink.com 1.10,2013-04-10 20:18:00,
2013-04-10 16:33:00,78.5,40.0,30.00,South,175,5.0,7.0,25,0.00,,,0.00,weatherlink.com 1.10,2013-04-10 20:33:00,
2013-04-10 16:48:00,77.4,39.0,29.98,South,179,7.0,10.0,25,0.00,,,0.00,weatherlink.com 1.10,2013-04-10 20:48:00,
2013-04-10 17:03:00,78.0,39.0,29.98,North,356,4.0,8.0,25,0.00,,,0.00,weatherlink.com 1.10,2013-04-10 21:03:00,
2013-04-10 17:18:00,78.0,40.0,29.98,SSE,159,1.0,10.0,26,0.00,,,0.00,weatherlink.com 1.10,2013-04-10 21:18:00,
2013-04-10 17:33:00,77.1,42.0,29.98,South,172,4.0,7.0,28,0.00,,,0.00,weatherlink.com 1.10,2013-04-10 21:33:00,
2013-04-10 17:48:00,75.5,40.0,29.97,SSW,213,4.0,5.0,28,0.00,,,0.00,weatherlink.com 1.10,2013-04-10 21:48:00,
2013-04-10 18:03:00,75.1,45.0,29.97,SW,236,2.0,5.0,34,0.00,,,0.00,weatherlink.com 1.10,2013-04-10 22:03:00,
2013-04-10 18:18:00,75.1,43.0,29.97,SSW,196,0.0,4.0,32,0.00,,,0.00,weatherlink.com 1.10,2013-04-10 22:18:00,
2013-04-10 18:33:00,75.5,43.0,29.96,NW,308,1.0,4.0,31,0.00,,,0.00,weatherlink.com 1.10,2013-04-10 22:33:00,
2013-04-10 18:48:00,75.2,44.0,29.96,SSE,162,0.0,6.0,33,0.00,,,0.00,weatherlink.com 1.10,2013-04-10 22:48:00,
2013-04-10 19:03:00,74.6,44.0,29.96,SW,228,2.0,4.0,33,0.00,,,0.00,weatherlink.com 1.10,2013-04-10 23:03:00,
2013-04-10 19:18:00,73.8,45.0,29.96,SW,217,2.0,9.0,36,0.00,,,0.00,weatherlink.com 1.10,2013-04-10 23:18:00,
2013-04-10 19:33:00,72.9,46.0,29.96,SSW,207,5.0,6.0,39,0.00,,,0.00,weatherlink.com 1.10,2013-04-10 23:33:00,
2013-04-10 19:48:00,72.0,48.0,29.96,ESE,103,3.0,11.0,42,0.00,,,0.00,weatherlink.com 1.10,2013-04-10 23:48:00,
2013-04-10 20:03:00,71.1,49.0,29.96,South,172,0.0,9.0,45,0.00,,,0.00,weatherlink.com 1.10,2013-04-11 00:03:00,
2013-04-10 20:18:00,70.3,48.0,29.96,WNW,296,3.0,7.0,46,0.00,,,0.00,weatherlink.com 1.10,2013-04-11 00:18:00,
2013-04-10 20:33:00,69.5,49.0,29.95,South,186,2.0,6.0,49,0.00,,,0.00,weatherlink.com 1.10,2013-04-11 00:33:00,
2013-04-10 20:48:00,68.7,50.0,29.95,South,186,1.0,4.0,52,0.00,,,0.00,weatherlink.com 1.10,2013-04-11 00:48:00,
2013-04-10 21:03:00,67.9,51.0,29.96,ESE,108,4.0,6.0,55,0.00,,,0.00,weatherlink.com 1.10,2013-04-11 01:03:00,
2013-04-10 21:18:00,67.3,51.0,29.95,SE,135,1.0,5.0,56,0.00,,,0.00,weatherlink.com 1.10,2013-04-11 01:18:00,
2013-04-10 21:33:00,66.6,51.0,29.95,South,182,4.0,5.0,58,0.00,,,0.00,weatherlink.com 1.10,2013-04-11 01:33:00,
2013-04-10 21:48:00,66.0,52.0,29.95,WSW,256,0.0,4.0,60,0.00,,,0.00,weatherlink.com 1.10,2013-04-11 01:48:00,
2013-04-10 22:03:00,65.3,52.0,29.95,SW,231,2.0,6.0,62,0.00,,,0.00,weatherlink.com 1.10,2013-04-11 02:03:00,
2013-04-10 22:18:00,64.8,52.0,29.94,South,190,0.0,4.0,63,0.00,,,0.00,weatherlink.com 1.10,2013-04-11 02:18:00,
2013-04-10 22:33:00,64.2,52.0,29.94,North,354,3.0,8.0,64,0.00,,,0.00,weatherlink.com 1.10,2013-04-11 02:33:00,
2013-04-10 22:48:00,64.0,52.0,29.94,West,266,5.0,8.0,65,0.00,,,0.00,weatherlink.com 1.10,2013-04-11 02:48:00,
2013-04-10 23:03:00,63.8,52.0,29.93,WNW,285,5.0,9.0,65,0.00,,,0.00,weatherlink.com 1.10,2013-04-11 03:03:00,
2013-04-10 23:34:00,63.4,50.0,29.93,NE,35,1.0,6.0,63,0.00,,,0.00,weatherlink.com 1.10,2013-04-11 03:34:00,
2013-04-10 23:47:00,63.5,51.0,29.94,NNW,333,2.0,9.0,64,0.00,,,0.00,weatherlink.com 1.10,2013-04-11 03:47:00,